Time;durP1;ratioP1;P1;durP2;ratioP2;P2;SDS_P1;SDS_P2;PMS_P1;PMS_P2;Temp;Humidity;BMP_temperature;BMP_pressure;BME280_temperature;BME280_humidity;BME280_pressure;Samples;Min_cycle;Max_cycle;Signal;HPM_P1;HPM_P2
2021/07/01 00:02:00;;;;;;;49.60;12.40;;;14.00;99.90;;;;;;5046252;28;20044;-83
2021/07/01 00:04:27;;;;;;;46.53;12.35;;;14.00;99.90;;;;;;5030684;28;20057;-82
2021/07/01 00:06:53;;;;;;;45.65;12.68;;;14.10;99.90;;;;;;5050365;28;20115;-82
2021/07/01 00:09:21;;;;;;;59.58;13.23;;;14.00;99.90;;;;;;5048512;28;20381;-83
2021/07/01 00:11:49;;;;;;;47.55;12.55;;;14.00;99.90;;;;;;5045230;28;20030;-82
2021/07/01 00:14:18;;;;;;;46.95;12.98;;;14.00;99.90;;;;;;5048570;28;20043;-83
2021/07/01 00:16:51;;;;;;;47.05;13.27;;;14.00;99.90;;;;;;5050161;28;20044;-82
2021/07/01 00:19:17;;;;;;;48.58;12.80;;;14.10;99.90;;;;;;5031504;28;20080;-82
2021/07/01 00:21:43;;;;;;;46.92;13.13;;;14.00;99.90;;;;;;5052549;28;20044;-81
2021/07/01 00:24:10;;;;;;;43.30;13.27;;;14.00;99.90;;;;;;5071027;28;20052;-82
2021/07/01 00:26:37;;;;;;;44.65;12.18;;;14.00;99.90;;;;;;5058639;28;20044;-83
2021/07/01 00:29:02;;;;;;;36.05;12.43;;;14.10;99.90;;;;;;5052410;28;20201;-84
2021/07/01 00:31:30;;;;;;;38.38;13.15;;;14.10;99.90;;;;;;5071368;28;20032;-84
2021/07/01 00:33:57;;;;;;;50.83;13.93;;;14.00;99.90;;;;;;5068846;28;20049;-83
2021/07/01 00:36:23;;;;;;;39.80;13.45;;;14.00;99.90;;;;;;5072645;28;20101;-84
2021/07/01 00:38:50;;;;;;;46.35;13.35;;;14.10;99.90;;;;;;5050311;28;20133;-83
2021/07/01 00:41:17;;;;;;;45.60;14.00;;;14.00;99.90;;;;;;5049272;28;20046;-83
2021/07/01 00:43:43;;;;;;;48.92;13.93;;;14.00;99.90;;;;;;5050790;28;20037;-83
2021/07/01 00:46:13;;;;;;;43.97;14.88;;;14.00;99.90;;;;;;5047431;28;20090;-83
2021/07/01 00:48:40;;;;;;;39.88;13.88;;;14.00;99.90;;;;;;5050384;28;20136;-83
2021/07/01 00:51:05;;;;;;;55.35;15.70;;;14.00;99.90;;;;;;5047320;28;20044;-83
2021/07/01 00:53:32;;;;;;;37.90;13.75;;;14.00;99.90;;;;;;5047254;28;20037;-83
2021/07/01 00:55:59;;;;;;;47.65;16.52;;;14.00;99.90;;;;;;5047199;28;20037;-82
2021/07/01 00:58:25;;;;;;;50.22;16.10;;;14.00;99.90;;;;;;5047328;28;20120;-84
2021/07/01 01:01:05;;;;;;;42.83;14.65;;;14.00;99.90;;;;;;5051452;28;20423;-83
2021/07/01 01:03:36;;;;;;;41.08;15.23;;;14.00;99.90;;;;;;5029837;28;20041;-84
2021/07/01 01:06:04;;;;;;;39.22;14.70;;;14.00;99.90;;;;;;5039619;28;20099;-83
2021/07/01 01:08:30;;;;;;;41.40;13.82;;;14.00;99.90;;;;;;5050491;28;20064;-84
2021/07/01 01:10:56;;;;;;;29.48;14.02;;;14.00;99.90;;;;;;5052263;28;20040;-83
2021/07/01 01:13:25;;;;;;;27.13;13.18;;;14.00;99.90;;;;;;5051148;28;20407;-83
2021/07/01 01:15:59;;;;;;;26.77;13.18;;;14.00;99.90;;;;;;5048664;28;20056;-83
2021/07/01 01:18:25;;;;;;;29.60;14.02;;;14.00;99.90;;;;;;5065419;28;20159;-82
2021/07/01 01:20:53;;;;;;;29.08;13.77;;;14.00;99.90;;;;;;5047004;28;20119;-82
2021/07/01 01:23:19;;;;;;;32.78;14.45;;;14.10;99.90;;;;;;5046166;28;20492;-83
2021/07/01 01:25:51;;;;;;;35.58;15.63;;;14.00;99.90;;;;;;5048605;28;20478;-82
2021/07/01 01:28:17;;;;;;;32.85;14.68;;;14.00;99.90;;;;;;5050488;28;20040;-84
2021/07/01 01:30:44;;;;;;;31.75;15.77;;;14.10;99.90;;;;;;5048892;28;20082;-83
2021/07/01 01:33:11;;;;;;;31.50;15.20;;;14.00;99.90;;;;;;5053808;28;20537;-84
2021/07/01 01:35:38;;;;;;;35.50;15.45;;;14.00;99.90;;;;;;5048005;28;20392;-82
2021/07/01 01:38:09;;;;;;;36.50;15.95;;;14.10;99.90;;;;;;5049254;28;20053;-84
2021/07/01 01:44:16;;;;;;;36.40;16.10;;;14.10;99.90;;;;;;5044106;28;20400;-84
2021/07/01 01:46:43;;;;;;;37.75;16.42;;;14.10;99.90;;;;;;5048079;28;20045;-84
2021/07/01 01:49:09;;;;;;;42.90;17.98;;;14.10;99.90;;;;;;5047221;28;20051;-84
2021/07/01 01:51:36;;;;;;;46.42;18.33;;;14.10;99.90;;;;;;5060595;28;20135;-84
2021/07/01 01:54:04;;;;;;;43.88;19.15;;;14.00;99.90;;;;;;5050923;28;20033;-82
2021/07/01 01:56:36;;;;;;;43.30;18.63;;;14.10;99.90;;;;;;5043761;28;20109;-84
2021/07/01 01:59:06;;;;;;;51.05;19.98;;;14.10;99.90;;;;;;5042650;28;20414;-83
2021/07/01 02:01:33;;;;;;;44.35;19.52;;;14.10;99.90;;;;;;5050110;28;20028;-83
2021/07/01 02:03:59;;;;;;;47.72;19.73;;;14.10;99.90;;;;;;5045042;28;20040;-83
2021/07/01 02:06:25;;;;;;;49.63;19.95;;;14.10;99.90;;;;;;5048117;28;20051;-83
2021/07/01 02:08:51;;;;;;;50.72;20.23;;;14.20;99.90;;;;;;5045265;28;20505;-82
2021/07/01 02:11:17;;;;;;;58.92;20.60;;;14.10;99.90;;;;;;5048528;28;20063;-84
2021/07/01 02:13:43;;;;;;;52.00;18.88;;;14.10;99.90;;;;;;5048674;28;20116;-83
2021/07/01 02:16:10;;;;;;;49.63;19.95;;;14.20;99.90;;;;;;5047786;28;20059;-84
2021/07/01 02:18:36;;;;;;;49.13;20.85;;;14.20;99.90;;;;;;5046911;28;20095;-83
2021/07/01 02:21:05;;;;;;;55.88;21.40;;;14.20;99.90;;;;;;5048342;28;20132;-82
2021/07/01 02:23:36;;;;;;;63.25;21.42;;;14.10;99.90;;;;;;5058763;28;20032;-84
2021/07/01 02:26:01;;;;;;;58.22;22.00;;;14.20;99.90;;;;;;5038108;28;20038;-83
2021/07/01 02:28:27;;;;;;;63.03;21.23;;;14.10;99.90;;;;;;5035700;28;20043;-83
2021/07/01 02:30:53;;;;;;;49.35;18.67;;;14.10;99.90;;;;;;5047411;28;20396;-83
2021/07/01 02:33:19;;;;;;;57.75;21.33;;;14.20;99.90;;;;;;5051726;28;20616;-83
2021/07/01 02:35:45;;;;;;;69.03;22.10;;;14.10;99.90;;;;;;5052086;28;20495;-83
2021/07/01 02:38:10;;;;;;;62.13;22.63;;;14.10;99.90;;;;;;5063385;28;20061;-83
2021/07/01 02:40:46;;;;;;;59.97;21.42;;;14.20;99.90;;;;;;5031594;28;20079;-83
2021/07/01 02:43:12;;;;;;;;;;;14.20;99.90;;;;;;5029186;28;20040;-83
2021/07/01 02:45:37;;;;;;;49.60;19.48;;;14.20;99.90;;;;;;5053497;28;19982;-83
2021/07/01 02:48:05;;;;;;;61.30;22.58;;;14.20;99.90;;;;;;5054385;28;20059;-84
2021/07/01 02:50:31;;;;;;;56.15;22.13;;;14.20;99.90;;;;;;5052860;28;20052;-84
2021/07/01 02:52:56;;;;;;;60.13;20.98;;;14.20;99.90;;;;;;5054637;28;20472;-82
2021/07/01 02:55:22;;;;;;;61.33;22.10;;;14.20;99.90;;;;;;5052704;28;20037;-83
2021/07/01 02:57:49;;;;;;;53.72;21.38;;;14.10;99.90;;;;;;5052815;28;20091;-82
2021/07/01 03:00:15;;;;;;;53.10;21.77;;;14.20;99.90;;;;;;5053715;28;20172;-82
2021/07/01 03:02:41;;;;;;;50.33;20.02;;;14.20;99.90;;;;;;5053846;28;20082;-82
2021/07/01 03:05:07;;;;;;;58.53;21.67;;;14.20;99.90;;;;;;5055026;28;20033;-82
2021/07/01 03:07:33;;;;;;;67.55;23.00;;;14.20;99.90;;;;;;5055024;28;20040;-84
2021/07/01 03:09:59;;;;;;;67.50;23.45;;;14.20;99.90;;;;;;5055271;28;20435;-83
2021/07/01 03:12:24;;;;;;;60.38;22.15;;;14.20;99.90;;;;;;5053347;28;20033;-83
2021/07/01 03:14:51;;;;;;;62.63;22.73;;;14.30;99.90;;;;;;5037429;28;20045;-84
2021/07/01 03:17:17;;;;;;;55.60;20.65;;;14.30;99.90;;;;;;5055389;28;20037;-84
2021/07/01 03:19:43;;;;;;;63.65;23.38;;;14.40;99.90;;;;;;5054565;28;20041;-85
2021/07/01 03:22:11;;;;;;;64.28;23.65;;;14.20;99.90;;;;;;5052757;28;20045;-83
2021/07/01 03:24:37;;;;;;;76.40;23.88;;;14.30;99.90;;;;;;5054709;28;20064;-85
2021/07/01 03:27:04;;;;;;;65.60;23.63;;;14.30;99.90;;;;;;5041347;28;20462;-85
2021/07/01 03:29:30;;;;;;;59.08;21.98;;;14.30;99.90;;;;;;5042957;28;20037;-84
2021/07/01 03:31:56;;;;;;;73.82;24.60;;;14.20;99.90;;;;;;5054086;28;20033;-81
2021/07/01 03:34:22;;;;;;;65.32;22.98;;;14.30;99.90;;;;;;5053353;28;20033;-85
2021/07/01 03:36:48;;;;;;;64.88;22.45;;;14.10;99.90;;;;;;5053976;28;20132;-83
2021/07/01 03:39:14;;;;;;;64.90;21.85;;;14.20;99.90;;;;;;5053634;28;20063;-83
2021/07/01 03:41:56;;;;;;;65.60;23.08;;;14.30;99.90;;;;;;5024191;28;20488;-83
2021/07/01 03:44:21;;;;;;;62.28;22.65;;;14.30;99.90;;;;;;5059123;28;20038;-83
2021/07/01 03:46:47;;;;;;;66.28;23.85;;;14.30;99.90;;;;;;5062114;28;20033;-85
2021/07/01 03:49:14;;;;;;;66.65;22.25;;;14.30;99.90;;;;;;5043269;28;20374;-85
2021/07/01 03:51:39;;;;;;;57.40;23.10;;;14.30;99.90;;;;;;5052927;28;20061;-85
2021/07/01 03:54:06;;;;;;;65.53;22.40;;;14.30;99.90;;;;;;5054705;28;20037;-84
2021/07/01 03:56:41;;;;;;;63.47;21.88;;;14.30;99.90;;;;;;5052252;28;20049;-85
2021/07/01 03:59:14;;;;;;;69.28;22.13;;;14.30;99.90;;;;;;5052511;28;20136;-84
2021/07/01 04:01:41;;;;;;;56.72;20.55;;;14.30;99.90;;;;;;5054106;28;20088;-84
2021/07/01 04:04:07;;;;;;;61.33;21.60;;;14.30;99.90;;;;;;5039397;28;20041;-85
2021/07/01 04:06:34;;;;;;;62.10;21.75;;;14.30;99.90;;;;;;5047214;28;20033;-84
2021/07/01 04:09:00;;;;;;;49.42;19.80;;;14.40;99.90;;;;;;5028265;28;20107;-84
2021/07/01 04:11:26;;;;;;;60.10;19.77;;;14.30;99.90;;;;;;5073303;28;20140;-84
2021/07/01 04:13:53;;;;;;;50.45;19.15;;;14.40;99.90;;;;;;5053056;28;20554;-84
2021/07/01 04:16:19;;;;;;;57.33;20.92;;;14.40;99.90;;;;;;5050442;28;20077;-84
2021/07/01 04:18:45;;;;;;;61.72;20.67;;;14.40;99.90;;;;;;5050118;28;20068;-84
2021/07/01 04:21:11;;;;;;;56.17;20.77;;;14.40;99.90;;;;;;5052102;28;20146;-85
2021/07/01 04:23:37;;;;;;;45.15;19.70;;;14.40;99.90;;;;;;5052236;28;20037;-84
2021/07/01 04:26:21;;;;;;;52.72;20.60;;;14.40;99.90;;;;;;5032487;28;20041;-84
2021/07/01 04:28:48;;;;;;;49.45;18.00;;;14.40;99.90;;;;;;5069254;28;20115;-85
2021/07/01 04:31:14;;;;;;;61.33;20.15;;;14.40;99.90;;;;;;5052364;28;20052;-84
2021/07/01 04:33:40;;;;;;;58.45;19.30;;;14.40;99.90;;;;;;5051429;28;20484;-84
2021/07/01 04:36:06;;;;;;;55.25;20.00;;;14.40;99.90;;;;;;5035321;28;20159;-84
2021/07/01 04:38:31;;;;;;;63.53;21.00;;;14.40;99.90;;;;;;5053938;28;20100;-85
2021/07/01 04:40:57;;;;;;;49.60;20.70;;;14.40;99.90;;;;;;5053489;28;20041;-85
2021/07/01 04:43:23;;;;;;;55.50;20.00;;;14.40;99.90;;;;;;5035805;28;20037;-84
2021/07/01 04:45:49;;;;;;;60.13;21.83;;;14.40;99.90;;;;;;5052198;28;20032;-85
2021/07/01 04:48:15;;;;;;;54.72;19.67;;;14.30;99.90;;;;;;5030850;28;20133;-85
2021/07/01 04:50:41;;;;;;;64.72;21.45;;;14.40;99.90;;;;;;5032252;28;20060;-83
2021/07/01 04:53:07;;;;;;;58.17;22.42;;;14.40;99.90;;;;;;5053263;28;20044;-84
2021/07/01 04:55:32;;;;;;;51.33;20.58;;;14.40;99.90;;;;;;5052624;28;20087;-84
2021/07/01 04:57:58;;;;;;;52.38;21.88;;;14.40;99.90;;;;;;5047492;28;20036;-84
2021/07/01 05:00:24;;;;;;;60.85;23.05;;;14.40;99.90;;;;;;5052715;28;20044;-83
2021/07/01 05:02:49;;;;;;;54.15;21.50;;;14.40;99.90;;;;;;5051034;28;20040;-84
2021/07/01 05:05:15;;;;;;;63.63;22.65;;;14.50;99.90;;;;;;5051648;28;22018;-84
2021/07/01 05:07:45;;;;;;;48.80;21.88;;;14.40;99.90;;;;;;5029188;28;20052;-85
2021/07/01 05:10:12;;;;;;;54.67;22.35;;;14.50;99.90;;;;;;5051300;28;20120;-84
2021/07/01 05:12:38;;;;;;;56.08;21.15;;;14.50;99.90;;;;;;5051024;28;20057;-84
2021/07/01 05:15:05;;;;;;;56.67;23.50;;;14.50;99.90;;;;;;5038477;28;20088;-84
2021/07/01 05:17:33;;;;;;;52.65;22.67;;;14.60;99.90;;;;;;5051407;28;20124;-81
2021/07/01 05:19:59;;;;;;;99.72;22.15;;;14.60;99.90;;;;;;5049067;28;20048;-82
2021/07/01 05:22:25;;;;;;;72.78;25.13;;;14.70;99.90;;;;;;5046844;28;20526;-85
2021/07/01 05:24:51;;;;;;;52.13;22.80;;;14.70;99.90;;;;;;5046718;28;20116;-86
2021/07/01 05:27:17;;;;;;;57.92;23.75;;;14.70;99.90;;;;;;5032503;28;20392;-86
2021/07/01 05:29:43;;;;;;;53.67;21.23;;;14.70;99.90;;;;;;5052270;28;20037;-86
2021/07/01 05:32:09;;;;;;;56.63;23.05;;;14.70;99.90;;;;;;5028990;28;20139;-84
2021/07/01 05:34:35;;;;;;;63.50;23.27;;;14.70;99.90;;;;;;5047809;28;20029;-82
2021/07/01 05:37:01;;;;;;;54.25;21.55;;;14.70;99.90;;;;;;5047119;28;20080;-81
2021/07/01 05:39:26;;;;;;;54.42;22.05;;;14.70;99.90;;;;;;5047749;28;20065;-81
2021/07/01 05:41:53;;;;;;;54.50;22.55;;;14.80;99.90;;;;;;5050560;28;20120;-81
2021/07/01 05:44:18;;;;;;;57.95;22.38;;;14.80;99.90;;;;;;5047221;28;20057;-80
2021/07/01 05:46:44;;;;;;;54.85;21.60;;;14.80;99.90;;;;;;5046530;28;20064;-82
2021/07/01 05:49:12;;;;;;;46.90;21.23;;;14.90;99.90;;;;;;5031424;28;20074;-83
2021/07/01 05:51:39;;;;;;;53.10;22.45;;;15.00;99.90;;;;;;5038144;28;20061;-83
2021/07/01 05:54:21;;;;;;;61.65;23.13;;;14.90;99.90;;;;;;5030389;28;20043;-83
2021/07/01 05:56:47;;;;;;;57.95;22.40;;;15.00;99.90;;;;;;5065810;28;20040;-82
2021/07/01 05:59:12;;;;;;;55.25;21.95;;;14.90;99.90;;;;;;5043936;28;20037;-81
2021/07/01 06:01:39;;;;;;;51.95;20.70;;;15.10;99.90;;;;;;5050267;28;20111;-80
2021/07/01 06:04:06;;;;;;;48.00;22.05;;;15.10;99.90;;;;;;5050309;28;20106;-80
2021/07/01 06:06:36;;;;;;;51.50;23.58;;;15.10;99.90;;;;;;5030792;28;20072;-79
2021/07/01 06:09:06;;;;;;;58.90;22.98;;;15.20;99.90;;;;;;5063000;28;20381;-81
2021/07/01 06:11:36;;;;;;;48.20;21.80;;;15.20;99.90;;;;;;5051801;28;20045;-82
2021/07/01 06:14:06;;;;;;;54.70;22.88;;;15.20;99.90;;;;;;5065479;28;20064;-84
2021/07/01 06:16:34;;;;;;;52.58;23.45;;;15.20;99.90;;;;;;5036124;28;20041;-82
2021/07/01 06:19:03;;;;;;;58.63;24.30;;;15.20;99.90;;;;;;5051137;28;20048;-83
2021/07/01 06:21:29;;;;;;;61.53;24.65;;;15.20;99.90;;;;;;5049403;28;20037;-84
2021/07/01 06:23:56;;;;;;;57.58;24.35;;;15.30;99.90;;;;;;5050992;28;20037;-83
2021/07/01 06:26:28;;;;;;;59.15;26.25;;;15.30;99.90;;;;;;5067158;28;20116;-84
2021/07/01 06:28:56;;;;;;;58.92;25.20;;;15.30;99.90;;;;;;5032591;28;20056;-84
2021/07/01 06:31:22;;;;;;;60.10;24.48;;;15.30;99.90;;;;;;5043973;28;20028;-83
2021/07/01 06:33:49;;;;;;;59.72;26.98;;;15.30;99.90;;;;;;5042505;28;20029;-84
2021/07/01 06:36:19;;;;;;;59.58;24.77;;;15.40;99.90;;;;;;5020385;28;20425;-85
2021/07/01 06:38:52;;;;;;;59.65;24.60;;;15.40;99.90;;;;;;5037106;28;20038;-84
2021/07/01 06:41:36;;;;;;;61.28;25.88;;;15.50;99.90;;;;;;5049309;28;20140;-84
2021/07/01 06:44:06;;;;;;;58.45;24.98;;;15.50;99.90;;;;;;5047940;28;20037;-84
2021/07/01 06:46:32;;;;;;;55.88;23.70;;;15.50;99.90;;;;;;5050017;28;20037;-83
2021/07/01 06:49:01;;;;;;;56.45;24.98;;;15.60;99.90;;;;;;5028006;28;20048;-84
2021/07/01 06:51:29;;;;;;;56.10;25.30;;;15.60;99.90;;;;;;5031693;28;20099;-83
2021/07/01 06:53:56;;;;;;;63.65;25.40;;;15.70;99.90;;;;;;5041504;28;20141;-85
2021/07/01 06:56:25;;;;;;;59.97;25.50;;;15.70;99.90;;;;;;5045553;28;20182;-84
2021/07/01 06:58:52;;;;;;;58.55;26.15;;;15.70;99.90;;;;;;5029372;28;20395;-84
2021/07/01 07:01:19;;;;;;;54.97;24.48;;;15.70;99.90;;;;;;5046433;28;20045;-85
2021/07/01 07:03:45;;;;;;;54.10;24.02;;;15.70;99.90;;;;;;5061474;28;20045;-85
2021/07/01 07:06:11;;;;;;;51.78;22.85;;;15.70;99.90;;;;;;5049162;28;20040;-84
2021/07/01 07:08:38;;;;;;;57.10;23.90;;;15.80;99.90;;;;;;5050207;28;20051;-83
2021/07/01 07:11:15;;;;;;;59.80;24.48;;;15.90;99.90;;;;;;5048997;28;20112;-81
2021/07/01 07:13:48;;;;;;;56.20;22.63;;;15.90;99.90;;;;;;5063715;28;20056;-84
2021/07/01 07:16:16;;;;;;;53.63;23.15;;;16.10;99.90;;;;;;5028887;28;20091;-82
2021/07/01 07:18:42;;;;;;;55.03;23.45;;;16.20;99.90;;;;;;5051028;28;20037;-81
2021/07/01 07:21:11;;;;;;;55.65;23.40;;;16.20;99.90;;;;;;5030157;28;20072;-83
2021/07/01 07:23:37;;;;;;;57.03;23.30;;;16.30;99.90;;;;;;5046419;28;20036;-83
2021/07/01 07:26:27;;;;;;;52.25;23.58;;;16.40;99.90;;;;;;5047022;28;20060;-82
2021/07/01 07:28:54;;;;;;;64.07;25.33;;;16.40;99.90;;;;;;5064479;28;20053;-82
2021/07/01 07:31:33;;;;;;;50.13;24.05;;;16.40;99.90;;;;;;5066318;28;20048;-85
2021/07/01 07:34:01;;;;;;;55.38;23.63;;;16.40;99.90;;;;;;5052749;28;20112;-83
2021/07/01 07:36:27;;;;;;;50.80;22.17;;;16.40;99.90;;;;;;5075351;28;20118;-88
2021/07/01 07:38:55;;;;;;;57.63;24.73;;;16.40;99.90;;;;;;5059674;28;20041;-85
2021/07/01 07:41:22;;;;;;;55.00;22.42;;;16.40;99.90;;;;;;5065515;28;20045;-84
2021/07/01 07:44:06;;;;;;;57.97;24.05;;;16.50;99.90;;;;;;5044377;28;20044;-85
2021/07/01 07:46:32;;;;;;;58.88;22.73;;;16.50;99.90;;;;;;5053786;28;20492;-86
2021/07/01 07:48:58;;;;;;;50.85;23.33;;;16.50;99.90;;;;;;5050912;28;20049;-87
2021/07/01 07:51:29;;;;;;;48.90;22.23;;;16.50;99.90;;;;;;5061636;28;20053;-84
2021/07/01 07:54:01;;;;;;;44.80;19.92;;;16.50;99.90;;;;;;5048538;28;20056;-83
2021/07/01 07:56:38;;;;;;;55.45;24.05;;;16.30;99.90;;;;;;5046438;28;20068;-83
2021/07/01 07:59:06;;;;;;;57.60;23.95;;;16.50;99.90;;;;;;5044241;28;20555;-83
2021/07/01 08:01:34;;;;;;;54.20;22.90;;;16.50;99.90;;;;;;5056731;28;20091;-84
2021/07/01 08:04:05;;;;;;;53.35;22.73;;;16.60;99.90;;;;;;5048353;28;20053;-85
2021/07/01 08:08:00;;;;;;;56.55;23.65;;;16.60;99.90;;;;;;5049252;28;20049;-86
2021/07/01 08:10:24;;;;;;;61.97;23.08;;;16.70;99.90;;;;;;5045767;28;20048;-87
2021/07/01 08:12:51;;;;;;;50.88;22.60;;;16.80;99.90;;;;;;5040876;28;20050;-83
2021/07/01 08:15:20;;;;;;;52.38;23.30;;;16.70;99.90;;;;;;5031982;28;20057;-84
2021/07/01 08:17:48;;;;;;;60.55;24.42;;;16.70;99.90;;;;;;5025598;28;20041;-85
2021/07/01 08:20:17;;;;;;;62.67;25.00;;;16.80;99.90;;;;;;5031894;28;20068;-85
2021/07/01 08:22:46;;;;;;;55.05;26.55;;;16.80;99.90;;;;;;5047856;28;20037;-86
2021/07/01 08:25:13;;;;;;;54.50;25.10;;;16.70;99.90;;;;;;5027465;28;20051;-85
2021/07/01 08:27:57;;;;;;;53.78;25.42;;;16.80;99.90;;;;;;5034235;28;20040;-88
2021/07/01 08:30:25;;;;;;;62.45;25.65;;;16.80;99.90;;;;;;5046416;28;20049;-85
2021/07/01 08:32:57;;;;;;;52.42;24.40;;;16.90;99.90;;;;;;5044322;28;20033;-85
2021/07/01 08:35:25;;;;;;;65.72;26.73;;;16.90;99.90;;;;;;5048185;28;20084;-86
2021/07/01 08:37:55;;;;;;;60.05;26.20;;;16.90;99.90;;;;;;5032232;28;20381;-87
2021/07/01 08:40:29;;;;;;;61.75;25.38;;;17.00;99.90;;;;;;5027847;28;20045;-87
2021/07/01 08:42:58;;;;;;;56.57;25.33;;;17.00;99.90;;;;;;5046413;28;20129;-85
2021/07/01 08:45:50;;;;;;;58.83;26.02;;;17.10;99.90;;;;;;5051755;28;20067;-87
2021/07/01 08:48:24;;;;;;;61.63;25.35;;;17.20;99.90;;;;;;5066359;28;20143;-87
2021/07/01 08:50:56;;;;;;;53.85;25.50;;;17.30;99.90;;;;;;5048180;28;20378;-84
2021/07/01 08:53:40;;;;;;;48.97;23.17;;;17.40;99.90;;;;;;5035111;28;20447;-85
2021/07/01 08:56:11;;;;;;;49.85;25.45;;;17.60;99.90;;;;;;5030659;28;20535;-86
2021/07/01 08:58:48;;;;;;;54.45;24.10;;;17.70;99.90;;;;;;5047226;28;20122;-84
2021/07/01 09:01:26;;;;;;;55.65;24.77;;;17.80;99.90;;;;;;5049771;28;20091;-84
2021/07/01 09:03:58;;;;;;;57.13;24.58;;;17.80;99.90;;;;;;5052132;28;20042;-86
2021/07/01 09:06:25;;;;;;;50.97;24.63;;;17.90;99.90;;;;;;5030888;28;20044;-86
2021/07/01 09:08:53;;;;;;;57.25;23.95;;;17.80;99.90;;;;;;5047801;28;20045;-84
2021/07/01 09:11:21;;;;;;;48.60;23.33;;;17.50;99.90;;;;;;5040426;28;20116;-86
2021/07/01 09:13:48;;;;;;;50.63;23.17;;;17.60;99.90;;;;;;5047555;28;20112;-87
2021/07/01 09:16:15;;;;;;;52.85;24.88;;;17.60;99.90;;;;;;5047230;28;20032;-84
2021/07/01 09:18:48;;;;;;;48.30;23.55;;;17.60;99.90;;;;;;5066776;28;20041;-84
2021/07/01 09:21:14;;;;;;;53.72;24.73;;;17.80;99.90;;;;;;5050752;28;20033;-85
2021/07/01 09:23:48;;;;;;;48.97;24.10;;;17.90;99.90;;;;;;5050073;28;20063;-84
2021/07/01 09:26:30;;;;;;;50.88;24.75;;;18.00;99.90;;;;;;5035480;28;20041;-83
2021/07/01 09:28:58;;;;;;;;;;;18.00;99.90;;;;;;5035495;28;20049;-83
2021/07/01 09:31:27;;;;;;;52.25;24.67;;;18.00;99.90;;;;;;5035088;28;19920;-83
2021/07/01 09:33:55;;;;;;;42.80;23.48;;;18.10;99.90;;;;;;5034404;28;20128;-83
2021/07/01 09:36:24;;;;;;;55.10;24.73;;;18.20;99.90;;;;;;5050793;28;20443;-84
2021/07/01 09:38:52;;;;;;;49.58;23.92;;;18.20;99.90;;;;;;5050869;28;20128;-82
2021/07/01 09:41:33;;;;;;;57.35;26.30;;;18.10;99.90;;;;;;5051433;28;20059;-84
2021/07/01 09:48:10;;;;;;;54.63;25.42;;;18.30;99.90;;;;;;5051768;28;19917;-86
2021/07/01 09:50:45;;;;;;;48.17;25.98;;;18.50;99.90;;;;;;5034232;28;20056;-84
2021/07/01 09:53:25;;;;;;;58.65;26.83;;;18.40;99.90;;;;;;5046644;28;20106;-82
2021/07/01 09:56:48;;;;;;;49.10;26.58;;;18.50;99.90;;;;;;5041513;28;20381;-83
2021/07/01 09:59:44;;;;;;;;;;;;;;;;;;;;;
2021/07/01 10:03:25;;;;;;;45.85;24.40;;;18.70;99.90;;;;;;5051989;28;20049;-83
2021/07/01 10:06:54;;;;;;;;;;;;;;;;;;;;;
2021/07/01 10:10:36;;;;;;;44.15;24.55;;;18.60;99.90;;;;;;4932019;29;20456;-82
2021/07/01 10:14:08;;;;;;;45.78;24.27;;;18.40;99.90;;;;;;4910703;29;20056;-83
2021/07/01 10:17:06;;;;;;;44.88;25.13;;;18.50;99.90;;;;;;4896728;29;20465;-86
2021/07/01 10:23:28;;;;;;;46.42;24.77;;;18.40;99.90;;;;;;4840751;29;20178;-82
2021/07/01 10:26:08;;;;;;;47.88;24.88;;;18.50;99.90;;;;;;4840693;29;20045;-83
2021/07/01 10:28:47;;;;;;;;;;;;;;;;;;;;;
2021/07/01 10:32:07;;;;;;;48.85;23.88;;;18.80;99.90;;;;;;4857794;29;20057;-83
2021/07/01 10:35:22;;;;;;;36.00;21.83;;;18.90;99.90;;;;;;4824065;29;20046;-83
2021/07/01 10:38:10;;;;;;;38.92;23.33;;;18.90;99.90;;;;;;4812927;29;20073;-83
2021/07/01 10:41:35;;;;;;;39.25;22.55;;;19.00;99.90;;;;;;4828260;29;20411;-83
2021/07/01 10:45:38;;;;;;;32.47;20.80;;;19.20;99.90;;;;;;4810754;29;20094;-83
2021/07/01 10:48:33;;;;;;;34.28;22.45;;;19.00;99.90;;;;;;4828927;29;20046;-83
2021/07/01 10:55:52;;;;;;;28.65;19.83;;;19.20;99.90;;;;;;4765699;29;20414;-83
2021/07/01 11:23:24;;;;;;;30.30;19.50;;;19.40;99.90;;;;;;6166201;22;4255829;-83
2021/07/01 11:25:53;;;;;;;28.65;18.63;;;19.00;99.90;;;;;;6292773;22;20280;-85
2021/07/01 11:28:26;;;;;;;28.80;18.67;;;19.10;99.90;;;;;;6319249;22;20091;-83
2021/07/01 11:30:58;;;;;;;35.47;19.20;;;19.20;99.90;;;;;;6318421;22;20458;-83
2021/07/01 11:33:24;;;;;;;23.25;17.45;;;19.30;99.90;;;;;;6318081;22;20816;-82
2021/07/01 11:36:07;;;;;;;22.70;17.05;;;19.40;99.90;;;;;;6319170;22;20085;-82
2021/07/01 11:38:33;;;;;;;23.80;16.58;;;19.30;99.90;;;;;;6328629;22;20006;-83
2021/07/01 11:41:03;;;;;;;29.67;17.65;;;19.50;99.90;;;;;;6319399;22;20436;-84
2021/07/01 11:43:30;;;;;;;27.05;17.50;;;19.50;99.90;;;;;;6291434;22;20029;-84
2021/07/01 11:45:57;;;;;;;30.35;19.38;;;19.40;99.90;;;;;;6319242;22;20069;-85
2021/07/01 11:48:25;;;;;;;33.25;18.65;;;19.40;99.90;;;;;;6329464;22;20022;-84
2021/07/01 11:50:52;;;;;;;30.75;18.00;;;19.70;99.90;;;;;;6356477;22;20108;-83
2021/07/01 11:53:20;;;;;;;26.42;18.05;;;19.70;99.90;;;;;;6292052;22;20030;-84
2021/07/01 11:55:51;;;;;;;25.75;17.70;;;19.60;99.90;;;;;;6346070;22;20034;-84
2021/07/01 11:58:18;;;;;;;25.65;18.17;;;19.60;99.90;;;;;;6318575;22;20462;-84
2021/07/01 12:00:45;;;;;;;23.80;16.27;;;19.40;99.90;;;;;;6323324;22;20006;-83
2021/07/01 12:03:12;;;;;;;24.02;17.15;;;19.40;99.90;;;;;;6319542;22;20022;-85
2021/07/01 12:05:49;;;;;;;24.13;16.40;;;19.50;99.90;;;;;;6322230;22;20067;-84
2021/07/01 12:08:16;;;;;;;24.05;16.52;;;19.50;99.90;;;;;;6348324;22;20015;-84
2021/07/01 12:10:44;;;;;;;22.08;16.77;;;19.70;99.90;;;;;;6320690;22;20452;-84
2021/07/01 12:13:33;;;;;;;28.10;17.65;;;19.90;99.90;;;;;;6333438;22;20017;-84
2021/07/01 12:16:02;;;;;;;25.10;16.63;;;19.90;99.90;;;;;;6165870;23;20047;-84
2021/07/01 12:18:49;;;;;;;21.67;15.20;;;20.40;99.90;;;;;;6189175;23;20031;-84
2021/07/01 12:21:20;;;;;;;26.08;16.38;;;20.50;99.90;;;;;;6164958;23;20349;-84
2021/07/01 12:23:47;;;;;;;23.13;15.13;;;20.80;99.90;;;;;;6183916;23;20801;-84
2021/07/01 12:26:34;;;;;;;25.48;16.73;;;20.90;99.90;;;;;;6165417;23;20027;-83
2021/07/01 12:29:02;;;;;;;25.20;16.13;;;21.00;99.90;;;;;;6158825;23;20442;-85
2021/07/01 12:31:32;;;;;;;25.00;16.15;;;21.40;99.90;;;;;;6130810;23;20013;-85
2021/07/01 12:34:07;;;;;;;24.38;16.60;;;21.40;99.90;;;;;;6154914;23;20343;-83
2021/07/01 12:36:56;;;;;;;27.85;16.77;;;21.60;99.90;;;;;;6132713;23;20017;-82
2021/07/01 12:39:41;;;;;;;29.42;17.10;;;21.80;99.90;;;;;;6130859;23;20030;-83
2021/07/01 12:42:07;;;;;;;30.58;17.20;;;21.30;99.90;;;;;;6156565;23;20390;-83
2021/07/01 12:44:38;;;;;;;28.33;16.25;;;21.30;99.90;;;;;;6156120;23;20028;-83
2021/07/01 12:50:35;;;;;;;25.92;16.27;;;21.70;99.90;;;;;;6162846;23;20079;-84
2021/07/01 12:56:48;;;;;;;24.42;15.30;;;22.20;99.90;;;;;;6216641;23;20012;-83
2021/07/01 12:59:42;;;;;;;27.02;15.43;;;21.80;99.90;;;;;;6193832;23;20016;-85
2021/07/01 13:02:37;;;;;;;31.92;17.23;;;21.70;99.90;;;;;;6219939;23;20081;-84
2021/07/01 13:05:16;;;;;;;30.23;17.52;;;21.60;99.90;;;;;;6215849;23;20095;-85
2021/07/01 13:07:48;;;;;;;29.50;18.52;;;21.60;99.90;;;;;;6189546;23;20020;-85
2021/07/01 13:10:25;;;;;;;28.42;16.85;;;21.80;99.90;;;;;;6226173;23;20020;-83
2021/07/01 13:20:17;;;;;;;22.75;15.05;;;21.60;99.90;;;;;;6240966;23;20012;-83
2021/07/01 13:22:45;;;;;;;25.02;15.27;;;22.00;99.90;;;;;;6213971;23;20155;-83
2021/07/01 13:25:18;;;;;;;24.30;14.30;;;22.40;99.90;;;;;;6226678;23;20039;-84
2021/07/01 13:28:22;;;;;;;20.73;13.40;;;22.40;99.90;;;;;;6240591;23;20035;-84
2021/07/01 13:31:04;;;;;;;21.83;14.40;;;23.00;99.90;;;;;;6123508;23;20430;-84
2021/07/01 13:33:30;;;;;;;21.95;14.55;;;23.20;99.90;;;;;;6183967;23;20491;-83
2021/07/01 13:35:59;;;;;;;22.85;13.48;;;23.20;99.90;;;;;;6186160;23;20107;-83
2021/07/01 13:38:25;;;;;;;18.90;12.95;;;23.50;99.90;;;;;;6192641;23;20092;-83
2021/07/01 13:40:54;;;;;;;23.05;13.05;;;24.00;99.90;;;;;;6186510;23;20023;-83
2021/07/01 13:43:21;;;;;;;22.77;12.73;;;24.20;99.90;;;;;;6160968;23;20013;-83
2021/07/01 13:45:54;;;;;;;19.98;12.02;;;24.10;99.90;;;;;;6189655;23;20019;-83
2021/07/01 13:48:24;;;;;;;22.73;12.45;;;24.20;99.90;;;;;;6186068;23;20095;-84
2021/07/01 13:51:00;;;;;;;26.92;12.75;;;23.70;99.90;;;;;;6162055;23;20013;-83